Overview Statistics Trail Chart Weather Telemetry Raw packets
 

This is the latest recevied weather packets stored in our database for station/object IU7URP-17. If no packets are shown the sender has not sent any weather packets the latest 10 day(s).

<< 15 16 17 18 19 20 21 >>
Time Temp. Humidity Pressure Rain* Wind** Luminosity Snow
1788097937 33.89° C 56% 1014.1 hPa - - - -
1788096733 34.44° C 53% 1014.2 hPa - - - -
1788095528 34.44° C 54% 1014.4 hPa - - - -
1788094324 35° C 51% 1014.6 hPa - - - -
1788093120 35° C 52% 1014.9 hPa - - - -
1788091916 35° C 52% 1015.1 hPa - - - -
1788089508 34.44° C 55% 1015.2 hPa - - - -
1788088304 35° C 54% 1015.3 hPa - - - -
1788087100 35° C 55% 1015.4 hPa - - - -
1788085896 35.56° C 53% 1015.6 hPa - - - -
1788084692 35.56° C 52% 1015.6 hPa - - - -
1788083487 36.11° C 49% 1015.7 hPa - - - -
1788082297 35° C 54% 1016 hPa - - - -
1788081079 37.22° C 49% 1016.1 hPa - - - -
1788079875 35.56° C 43% 1016.4 hPa - - - -
1788078671 35° C 45% 1016.4 hPa - - - -
1788077467 31.67° C 52% 1016.4 hPa - - - -
1788076263 31.67° C 51% 1016.2 hPa - - - -
1788075058 33.89° C 47% 1016.3 hPa - - - -
1788073855 33.33° C 53% 1016.5 hPa - - - -
1788072650 33.33° C 57% 1016.4 hPa - - - -
1788071446 30.56° C 73% 1016.8 hPa - - - -
1788070242 28.89° C 81% 1016.8 hPa - - - -
1788069038 28.33° C 83% 1017.1 hPa - - - -
1788067834 26.11° C 91% 1017.3 hPa - - - -

* Rain since midnight (hover to see other rain measurements)
** Current wind speed in m/s (hover to see current wind gust speed)